Details for Transavia (Netherlands) at EHRD




Go Back


Latest METAR
Local Time

EHRD 061725Z AUTO 25010KT 220V280 9999 OVC029 14/10 Q1022 NOSIG
06/04/2020, 19:56:19

Description
Results
Transavia (Netherlands) Logo
Number of Pilots based at EHRD
0 Pilots Based here
Number of Transavia (Netherlands) Flights Departed from EHRD
2 Flights Departed
Number of Transavia (Netherlands) Flights Arrived at EHRD
2 Flights Arrived
Number of Transavia (Netherlands) Schedules Departing from EHRD
129 Schedules
Number of Transavia (Netherlands) Schedules Arriving at EHRD
131 Schedules
Number of Transavia (Netherlands) Schedules Departing from EHRD availible today
20 Schedules Today
Number of Transavia (Netherlands) Schedules Arriving at EHRD availible today
22 Schedules Today
Average Landing Rate at EHRD
-247 fpm
Transavia (Netherlands) Average Landing Rate at EHRD
-149 fpm
Total Fuel Purchased at EHRD by Transavia (Netherlands)
8,116.58 kgs / 17,893.81 lbs

Pilots Based at EHRD


Pilot ID
Pilot Name
Pilot Rank
No. of Flights
No. of Flying Hours
There are no pilots assigned to this hub!   Will you be the first?